Time;durP1;ratioP1;P1;durP2;ratioP2;P2;SDS_P1;SDS_P2;PMS_P1;PMS_P2;Temp;Humidity;BMP_temperature;BMP_pressure;BME280_temperature;BME280_humidity;BME280_pressure;Samples;Min_cycle;Max_cycle;Signal;HPM_P1;HPM_P2
2020/12/05 00:02:31;;;;;;;9.70;6.30;;;8.00;80.60;;;;;;5052187;28;20048;-81
2020/12/05 00:04:56;;;;;;;10.03;6.30;;;7.90;80.60;;;;;;5070515;28;20036;-80
2020/12/05 00:07:22;;;;;;;9.57;6.20;;;7.90;80.70;;;;;;5069254;28;20044;-80
2020/12/05 00:09:48;;;;;;;7.00;6.03;;;7.90;80.80;;;;;;5063620;28;20044;-79
2020/12/05 00:12:13;;;;;;;6.97;5.97;;;7.90;81.00;;;;;;5054460;28;20033;-79
2020/12/05 00:14:39;;;;;;;7.57;5.87;;;7.90;80.80;;;;;;5062937;28;20049;-81
2020/12/05 00:17:05;;;;;;;9.33;6.33;;;8.10;80.70;;;;;;5069324;28;20108;-80
2020/12/05 00:19:31;;;;;;;8.57;6.57;;;7.90;80.80;;;;;;5064874;28;20167;-79
2020/12/05 00:22:17;;;;;;;6.83;6.13;;;7.90;80.60;;;;;;5068498;28;20469;-79
2020/12/05 00:24:43;;;;;;;7.60;6.50;;;7.80;80.80;;;;;;5072669;28;20035;-80
2020/12/05 00:27:28;;;;;;;9.17;6.40;;;7.80;81.40;;;;;;5057320;28;20067;-82
2020/12/05 00:30:16;;;;;;;7.87;7.00;;;7.70;80.80;;;;;;5080461;28;20040;-81
2020/12/05 00:33:01;;;;;;;8.97;7.27;;;7.70;80.80;;;;;;5062753;28;20037;-81
2020/12/05 00:35:27;;;;;;;10.40;7.30;;;7.60;80.80;;;;;;5064203;28;20307;-81
2020/12/05 00:37:55;;;;;;;9.33;7.97;;;7.50;80.90;;;;;;5049149;28;20136;-81
2020/12/05 00:40:21;;;;;;;10.40;7.57;;;7.40;81.30;;;;;;5049913;28;20033;-80
2020/12/05 00:43:09;;;;;;;10.37;7.43;;;7.40;81.30;;;;;;5026167;28;20040;-80
2020/12/05 00:45:35;;;;;;;9.20;8.13;;;7.30;81.40;;;;;;5048668;28;20047;-81
2020/12/05 00:48:01;;;;;;;11.13;8.73;;;7.30;81.60;;;;;;5066914;28;20053;-81
2020/12/05 00:50:26;;;;;;;12.07;8.93;;;7.20;81.50;;;;;;5068476;28;20033;-80
2020/12/05 00:52:52;;;;;;;10.10;7.83;;;7.30;81.70;;;;;;5065534;28;20128;-81
2020/12/05 00:55:19;;;;;;;11.03;7.90;;;7.20;81.60;;;;;;5070961;28;20071;-80
2020/12/05 00:57:45;;;;;;;10.87;8.50;;;7.10;81.50;;;;;;5061603;28;20068;-80
2020/12/05 01:00:15;;;;;;;10.87;8.73;;;7.10;81.40;;;;;;5071322;28;20408;-80
2020/12/05 01:03:01;;;;;;;10.60;8.37;;;7.00;81.40;;;;;;5064290;28;20041;-80
2020/12/05 01:05:27;;;;;;;10.87;8.30;;;7.00;81.60;;;;;;5071163;28;20400;-80
2020/12/05 01:07:53;;;;;;;13.77;8.70;;;7.00;82.10;;;;;;5062846;28;20483;-80
2020/12/05 01:10:18;;;;;;;10.60;8.60;;;6.90;82.20;;;;;;5064558;28;20044;-80
2020/12/05 01:12:44;;;;;;;10.23;8.70;;;6.90;82.50;;;;;;5072685;28;20033;-80
2020/12/05 01:15:30;;;;;;;10.10;8.97;;;6.90;82.50;;;;;;5067811;28;20079;-81
2020/12/05 01:17:57;;;;;;;13.63;9.50;;;6.90;82.50;;;;;;5062061;28;20155;-80
2020/12/05 01:20:23;;;;;;;13.47;9.27;;;6.90;82.50;;;;;;5074543;28;20515;-80
2020/12/05 01:22:49;;;;;;;14.70;10.70;;;6.90;82.50;;;;;;5056687;28;20068;-81
2020/12/05 01:25:16;;;;;;;15.40;10.03;;;6.90;82.50;;;;;;5043091;28;20126;-81
2020/12/05 01:27:43;;;;;;;13.33;9.47;;;6.90;82.50;;;;;;5063794;28;20040;-80
2020/12/05 01:30:10;;;;;;;15.17;10.37;;;6.80;82.40;;;;;;5069124;28;20506;-80
2020/12/05 01:32:55;;;;;;;14.20;9.33;;;6.80;82.30;;;;;;5059344;28;20119;-80
2020/12/05 01:35:21;;;;;;;16.80;9.57;;;6.80;82.40;;;;;;5063327;28;20091;-80
2020/12/05 01:37:47;;;;;;;13.63;9.90;;;6.80;82.40;;;;;;5040710;28;20093;-80
2020/12/05 01:40:13;;;;;;;13.70;10.50;;;6.80;82.40;;;;;;5054784;28;20041;-80
2020/12/05 01:42:59;;;;;;;14.47;9.60;;;6.70;82.60;;;;;;5060133;28;20051;-82
2020/12/05 01:45:46;;;;;;;13.97;10.17;;;6.80;83.00;;;;;;5048362;28;20142;-80
2020/12/05 01:48:33;;;;;;;14.87;10.67;;;6.80;83.30;;;;;;5039907;28;20135;-81
2020/12/05 01:50:59;;;;;;;15.60;10.03;;;6.70;83.50;;;;;;5055073;28;20047;-80
2020/12/05 01:53:24;;;;;;;15.17;10.10;;;6.70;83.60;;;;;;5062433;28;20096;-81
2020/12/05 01:55:50;;;;;;;14.83;10.90;;;6.70;83.70;;;;;;5068826;28;20094;-81
2020/12/05 01:58:16;;;;;;;16.83;11.67;;;6.80;83.70;;;;;;5035794;28;20032;-80
2020/12/05 02:01:02;;;;;;;18.17;11.87;;;6.80;83.60;;;;;;5038058;28;20450;-81
2020/12/05 02:03:28;;;;;;;15.57;11.03;;;6.80;83.70;;;;;;5039563;28;20114;-81
2020/12/05 02:06:08;;;;;;;15.20;11.07;;;6.80;83.60;;;;;;5056082;28;20029;-80
2020/12/05 02:08:53;;;;;;;18.77;10.37;;;6.90;83.50;;;;;;5052234;28;20047;-81
2020/12/05 02:11:21;;;;;;;14.67;11.00;;;6.80;83.40;;;;;;5060256;28;20349;-80
2020/12/05 02:13:47;;;;;;;18.17;10.10;;;6.90;83.60;;;;;;5058316;28;20033;-80
2020/12/05 02:16:13;;;;;;;17.47;10.93;;;6.90;83.70;;;;;;5052012;28;20182;-80
2020/12/05 02:18:39;;;;;;;17.47;10.50;;;7.00;84.40;;;;;;5029831;28;20029;-80
2020/12/05 02:21:27;;;;;;;16.07;10.70;;;6.90;83.80;;;;;;5042760;28;20039;-80
2020/12/05 02:23:53;;;;;;;14.00;9.40;;;6.90;84.00;;;;;;5050688;28;20496;-81
2020/12/05 02:26:19;;;;;;;16.23;10.57;;;7.00;84.20;;;;;;5047275;28;20025;-79
2020/12/05 02:28:45;;;;;;;13.97;10.27;;;7.00;84.20;;;;;;5040110;28;20377;-79
2020/12/05 02:31:11;;;;;;;19.10;11.60;;;7.00;84.10;;;;;;5054089;28;20043;-81
2020/12/05 02:33:37;;;;;;;20.53;10.93;;;7.10;84.00;;;;;;5041272;28;20039;-79
2020/12/05 02:36:04;;;;;;;16.87;10.57;;;7.10;83.50;;;;;;5065267;28;20120;-81
2020/12/05 02:38:50;;;;;;;18.07;10.80;;;7.10;83.30;;;;;;5050820;28;20091;-79
2020/12/05 02:41:40;;;;;;;17.20;11.63;;;7.00;83.10;;;;;;5060358;28;20041;-79
2020/12/05 02:44:06;;;;;;;18.93;12.03;;;7.00;83.10;;;;;;5036337;28;20036;-79
2020/12/05 02:46:32;;;;;;;16.00;11.00;;;7.00;83.10;;;;;;5050518;28;20037;-80
2020/12/05 02:48:58;;;;;;;17.63;12.27;;;6.90;83.10;;;;;;5025670;28;20045;-80
2020/12/05 02:51:23;;;;;;;15.27;11.17;;;7.00;83.30;;;;;;5065122;28;20102;-81
2020/12/05 02:53:49;;;;;;;18.70;11.83;;;7.00;83.60;;;;;;5066718;28;20036;-81
2020/12/05 02:56:16;;;;;;;18.10;11.30;;;7.00;83.70;;;;;;5051008;28;20408;-80
2020/12/05 02:58:46;;;;;;;21.20;11.60;;;7.00;83.80;;;;;;5058251;28;20072;-80
2020/12/05 03:01:31;;;;;;;16.03;11.17;;;7.00;84.50;;;;;;5044922;28;20400;-81
2020/12/05 03:03:57;;;;;;;16.60;11.00;;;7.10;84.10;;;;;;5068159;28;20037;-81
2020/12/05 03:06:23;;;;;;;17.43;11.07;;;7.10;84.70;;;;;;5066638;28;20051;-80
2020/12/05 03:08:48;;;;;;;18.10;11.13;;;7.10;84.00;;;;;;5055436;28;20099;-80
2020/12/05 03:11:14;;;;;;;16.03;10.97;;;7.10;83.90;;;;;;5056109;28;20028;-81
2020/12/05 03:13:40;;;;;;;19.20;11.63;;;7.20;84.70;;;;;;5056549;28;20044;-80
2020/12/05 03:16:07;;;;;;;16.20;10.80;;;7.20;84.00;;;;;;5048345;28;20063;-80
2020/12/05 03:18:53;;;;;;;17.07;11.10;;;7.20;84.10;;;;;;5020580;28;20136;-80
2020/12/05 03:21:19;;;;;;;16.13;11.13;;;7.30;84.80;;;;;;5058762;28;20064;-80
2020/12/05 03:23:47;;;;;;;17.43;10.40;;;7.30;84.00;;;;;;5073165;28;20459;-80
2020/12/05 03:26:33;;;;;;;21.00;11.30;;;7.30;83.90;;;;;;5054428;28;20068;-80
2020/12/05 03:28:59;;;;;;;18.07;11.33;;;7.30;83.80;;;;;;5064163;28;20040;-80
2020/12/05 03:34:33;;;;;;;17.83;11.60;;;7.30;84.10;;;;;;5040981;28;20473;-80
2020/12/05 03:36:59;;;;;;;19.73;10.97;;;7.30;83.30;;;;;;5080434;28;20085;-80
2020/12/05 03:39:24;;;;;;;21.90;12.03;;;7.20;83.30;;;;;;5022323;28;20044;-80
2020/12/05 03:42:11;;;;;;;19.63;11.97;;;7.20;83.20;;;;;;5051429;28;20052;-80
2020/12/05 03:44:56;;;;;;;19.43;11.33;;;7.20;83.20;;;;;;5043996;28;20037;-80
2020/12/05 03:47:23;;;;;;;26.10;11.23;;;7.30;83.20;;;;;;5048633;28;20044;-80
2020/12/05 03:50:09;;;;;;;19.50;11.43;;;7.20;83.20;;;;;;5022884;28;20047;-79
2020/12/05 03:52:35;;;;;;;20.63;11.80;;;7.20;83.40;;;;;;5059162;28;20115;-79
2020/12/05 03:55:00;;;;;;;20.40;11.17;;;7.20;83.50;;;;;;5065944;28;20036;-80
2020/12/05 03:57:46;;;;;;;16.23;10.77;;;7.20;83.60;;;;;;5051467;28;20135;-79
2020/12/05 04:00:32;;;;;;;19.13;11.13;;;7.20;83.60;;;;;;5033479;28;20064;-79
2020/12/05 04:02:57;;;;;;;23.50;11.40;;;7.20;83.60;;;;;;5060323;28;20461;-79
2020/12/05 04:05:23;;;;;;;18.93;11.47;;;7.20;83.50;;;;;;5068515;28;20469;-79
2020/12/05 04:07:49;;;;;;;19.50;11.90;;;7.20;83.40;;;;;;5065680;28;20042;-79
2020/12/05 04:10:15;;;;;;;23.67;12.43;;;7.20;83.40;;;;;;5064719;28;20040;-79
2020/12/05 04:12:40;;;;;;;24.77;13.03;;;7.30;83.20;;;;;;5061024;28;20041;-79
2020/12/05 04:15:06;;;;;;;21.73;12.60;;;7.10;82.50;;;;;;5035046;28;20033;-80
2020/12/05 04:17:32;;;;;;;24.40;11.83;;;7.20;82.80;;;;;;5068977;28;20545;-80
2020/12/05 04:19:57;;;;;;;23.10;13.07;;;7.10;83.00;;;;;;5065328;28;20037;-80
2020/12/05 04:22:43;;;;;;;26.73;14.07;;;7.10;83.00;;;;;;5029260;28;20041;-80
2020/12/05 04:25:09;;;;;;;26.40;13.63;;;7.10;82.90;;;;;;5052443;28;20535;-80
2020/12/05 04:27:34;;;;;;;26.57;13.37;;;7.20;82.50;;;;;;5049048;28;20040;-80
2020/12/05 04:30:00;;;;;;;28.27;13.10;;;7.00;82.70;;;;;;5055977;28;20059;-79
2020/12/05 04:32:46;;;;;;;23.67;12.47;;;7.00;83.00;;;;;;5041134;28;20144;-79
2020/12/05 04:35:32;;;;;;;23.93;12.73;;;7.00;83.00;;;;;;5042736;28;20063;-80
2020/12/05 04:38:17;;;;;;;25.87;12.73;;;7.00;83.00;;;;;;5040674;28;20041;-79
2020/12/05 04:40:43;;;;;;;25.93;13.37;;;7.00;83.00;;;;;;5058520;28;20075;-79
2020/12/05 04:43:09;;;;;;;20.90;12.73;;;7.00;82.80;;;;;;5030521;28;20116;-79
2020/12/05 04:45:55;;;;;;;29.40;13.07;;;7.10;82.90;;;;;;5057850;28;20062;-79
2020/12/05 04:48:21;;;;;;;25.13;14.03;;;7.10;82.90;;;;;;5042742;28;20086;-79
2020/12/05 04:50:47;;;;;;;22.73;12.93;;;7.10;82.50;;;;;;5064318;28;20033;-79
2020/12/05 04:53:17;;;;;;;25.73;11.80;;;7.10;82.60;;;;;;5055618;28;20434;-80
2020/12/05 04:55:43;;;;;;;24.80;12.27;;;7.10;82.40;;;;;;5056004;28;20123;-79
2020/12/05 04:58:29;;;;;;;24.00;12.57;;;7.10;82.60;;;;;;5057501;28;20064;-80
2020/12/05 05:00:58;;;;;;;27.30;13.47;;;7.10;83.20;;;;;;5067245;28;20055;-80
2020/12/05 05:03:27;;;;;;;25.83;12.80;;;7.10;82.40;;;;;;5036895;28;20044;-80
2020/12/05 05:05:55;;;;;;;25.47;12.30;;;7.10;82.10;;;;;;5045820;28;20049;-79
2020/12/05 05:08:23;;;;;;;22.00;12.83;;;7.10;82.30;;;;;;5051968;28;20040;-79
2020/12/05 05:11:04;;;;;;;25.10;12.97;;;7.10;82.40;;;;;;5076470;28;20123;-79
2020/12/05 05:14:15;;;;;;;22.07;12.37;;;7.20;82.40;;;;;;5037999;28;20118;-80
2020/12/05 05:16:41;;;;;;;23.70;11.20;;;7.20;82.50;;;;;;5073941;28;20116;-79
2020/12/05 05:19:22;;;;;;;24.67;13.23;;;7.20;82.80;;;;;;5065638;28;20043;-79
2020/12/05 05:21:49;;;;;;;23.13;14.07;;;7.20;82.50;;;;;;5087562;28;20028;-80
2020/12/05 05:24:15;;;;;;;23.17;12.17;;;7.20;82.70;;;;;;5050945;28;20044;-80
2020/12/05 05:27:07;;;;;;;25.17;13.33;;;7.40;82.70;;;;;;5040225;28;20033;-79
2020/12/05 05:29:40;;;;;;;25.30;13.17;;;7.30;82.50;;;;;;5074686;28;20032;-80
2020/12/05 05:32:27;;;;;;;23.87;12.30;;;7.30;82.80;;;;;;5069072;28;20041;-79
2020/12/05 05:35:14;;;;;;;22.50;12.47;;;7.40;82.70;;;;;;5068536;28;20071;-79
2020/12/05 05:37:40;;;;;;;31.37;14.87;;;7.40;82.40;;;;;;5068499;28;20041;-80
2020/12/05 05:40:26;;;;;;;24.30;12.97;;;7.40;82.50;;;;;;5028363;28;20051;-78
2020/12/05 05:43:18;;;;;;;26.43;13.93;;;7.40;82.40;;;;;;5041160;28;20033;-78
2020/12/05 05:46:05;;;;;;;18.45;10.27;;;7.40;82.50;;;;;;5055665;28;20048;-78
2020/12/05 05:48:51;;;;;;;21.77;13.50;;;7.50;82.80;;;;;;5025870;28;20037;-78
2020/12/05 05:51:37;;;;;;;23.03;13.83;;;7.50;82.70;;;;;;5055636;28;20048;-81
2020/12/05 05:54:27;;;;;;;28.27;14.40;;;7.40;82.60;;;;;;5069741;28;20131;-80
2020/12/05 05:57:15;;;;;;;31.77;15.70;;;7.50;82.60;;;;;;5057610;28;20117;-81
2020/12/05 06:00:01;;;;;;;26.50;14.97;;;7.40;82.10;;;;;;5065722;28;20485;-81
2020/12/05 06:02:27;;;;;;;27.33;13.90;;;7.50;82.30;;;;;;5079580;28;20032;-81
2020/12/05 06:04:52;;;;;;;33.00;15.27;;;7.40;82.20;;;;;;5057878;28;20044;-81
2020/12/05 06:07:19;;;;;;;29.67;14.87;;;7.40;82.30;;;;;;5067269;28;20090;-81
2020/12/05 06:09:48;;;;;;;31.00;15.03;;;7.40;82.10;;;;;;5066815;28;20033;-81
2020/12/05 06:12:35;;;;;;;26.73;14.43;;;7.40;82.30;;;;;;5059453;28;20063;-80
2020/12/05 06:15:02;;;;;;;27.13;14.90;;;7.30;82.40;;;;;;5058401;28;20041;-81
2020/12/05 06:17:28;;;;;;;27.10;14.07;;;7.40;82.50;;;;;;5045115;28;20124;-81
2020/12/05 06:19:55;;;;;;;30.20;14.20;;;7.40;82.70;;;;;;5059403;28;20600;-81
2020/12/05 06:22:59;;;;;;;28.00;15.73;;;7.50;82.80;;;;;;5059438;28;20039;-81
2020/12/05 06:25:25;;;;;;;27.92;15.10;;;7.50;82.90;;;;;;5031616;28;20065;-81
2020/12/05 06:28:11;;;;;;;32.17;15.77;;;7.40;83.00;;;;;;5061643;28;20099;-81
2020/12/05 06:30:36;;;;;;;31.60;15.50;;;7.40;83.00;;;;;;5051279;28;20439;-81
2020/12/05 06:33:02;;;;;;;33.33;16.50;;;7.50;83.00;;;;;;5071899;28;20069;-80
2020/12/05 06:35:32;;;;;;;27.57;15.27;;;7.50;83.00;;;;;;5059675;28;20040;-80
2020/12/05 06:38:18;;;;;;;30.60;16.07;;;7.60;83.00;;;;;;5053036;28;20047;-80
2020/12/05 06:41:03;;;;;;;31.10;16.80;;;7.60;83.10;;;;;;5065523;28;20048;-80
2020/12/05 06:44:13;;;;;;;25.67;15.83;;;7.60;83.10;;;;;;5036412;28;20048;-80
2020/12/05 06:46:57;;;;;;;28.03;15.20;;;7.70;83.00;;;;;;5066833;28;20110;-79
2020/12/05 06:49:35;;;;;;;28.27;16.53;;;7.70;83.00;;;;;;5044900;28;20040;-78
2020/12/05 06:52:24;;;;;;;27.63;16.83;;;7.70;82.90;;;;;;5071146;28;20044;-80
2020/12/05 06:54:59;;;;;;;26.47;15.33;;;7.80;83.10;;;;;;5072776;28;20052;-81
2020/12/05 06:57:26;;;;;;;32.50;18.73;;;7.80;83.00;;;;;;5072769;28;20086;-80
2020/12/05 06:59:56;;;;;;;25.27;15.53;;;7.80;83.00;;;;;;5055937;28;20076;-80
2020/12/05 07:02:28;;;;;;;27.70;16.33;;;7.80;82.90;;;;;;5051132;28;20049;-80
2020/12/05 07:05:19;;;;;;;34.73;16.73;;;7.80;82.50;;;;;;5079163;28;20044;-80
2020/12/05 07:07:45;;;;;;;25.17;14.70;;;7.80;82.40;;;;;;5065136;28;20040;-80
2020/12/05 07:10:53;;;;;;;26.03;15.90;;;7.90;82.60;;;;;;5044829;28;20148;-81
2020/12/05 07:13:22;;;;;;;25.80;15.77;;;7.90;82.60;;;;;;5055864;28;20123;-81
2020/12/05 07:15:48;;;;;;;27.30;15.00;;;7.80;82.70;;;;;;5060934;28;20024;-79
2020/12/05 07:18:34;;;;;;;25.93;16.63;;;7.80;82.70;;;;;;5060694;28;20051;-80
2020/12/05 07:21:00;;;;;;;28.03;17.40;;;7.80;82.80;;;;;;5044314;28;20123;-82
2020/12/05 07:23:32;;;;;;;27.20;16.73;;;7.80;82.80;;;;;;5082166;28;20040;-80
2020/12/05 07:26:00;;;;;;;26.43;17.07;;;7.80;82.80;;;;;;5067518;28;20485;-78
2020/12/05 07:28:26;;;;;;;28.50;17.63;;;7.90;82.90;;;;;;5051893;28;20044;-80
2020/12/05 07:30:51;;;;;;;29.20;16.30;;;7.90;82.90;;;;;;5060312;28;20401;-81
2020/12/05 07:33:18;;;;;;;25.90;16.33;;;7.90;83.00;;;;;;5058066;28;20067;-78
2020/12/05 07:36:05;;;;;;;28.00;16.60;;;7.90;82.90;;;;;;5035909;28;20053;-80
2020/12/05 07:38:32;;;;;;;29.27;15.50;;;7.90;83.00;;;;;;5048441;28;20047;-80
2020/12/05 07:40:58;;;;;;;24.33;14.93;;;7.90;83.00;;;;;;5082325;28;20554;-81
2020/12/05 07:43:24;;;;;;;23.67;14.83;;;7.90;83.00;;;;;;5025663;28;20036;-81
2020/12/05 07:46:11;;;;;;;25.60;13.73;;;7.90;82.90;;;;;;5038499;28;20416;-80
2020/12/05 07:48:37;;;;;;;24.07;14.20;;;7.90;82.80;;;;;;5049663;28;20490;-80
2020/12/05 07:51:06;;;;;;;23.23;13.70;;;7.90;82.80;;;;;;5064598;28;20039;-81
2020/12/05 07:53:52;;;;;;;23.53;13.90;;;7.90;82.80;;;;;;5040786;28;20127;-80
2020/12/05 07:56:21;;;;;;;21.50;13.63;;;7.90;83.00;;;;;;5069228;28;20056;-81
2020/12/05 07:58:55;;;;;;;24.87;14.43;;;7.80;82.70;;;;;;5045066;28;20091;-80
2020/12/05 08:01:55;;;;;;;24.58;13.63;;;7.80;82.80;;;;;;5049322;28;20053;-81
2020/12/05 08:04:54;;;;;;;23.33;14.03;;;7.80;83.10;;;;;;5058158;28;21390;-80
2020/12/05 08:07:37;;;;;;;25.87;13.93;;;7.70;83.10;;;;;;5068253;28;20086;-81
2020/12/05 08:10:10;;;;;;;25.53;14.57;;;7.70;83.20;;;;;;5069766;28;20058;-81
2020/12/05 08:12:42;;;;;;;31.30;14.70;;;7.80;83.30;;;;;;5049920;28;20033;-81
2020/12/05 08:15:08;;;;;;;28.17;15.37;;;7.70;83.30;;;;;;5071929;28;20092;-80
2020/12/05 08:17:37;;;;;;;29.07;14.37;;;7.70;83.50;;;;;;5050322;28;20132;-79
2020/12/05 08:20:22;;;;;;;25.40;15.23;;;7.80;83.50;;;;;;5055009;28;20044;-80
2020/12/05 08:22:49;;;;;;;26.13;15.40;;;7.80;83.70;;;;;;5086321;28;20458;-80
2020/12/05 08:25:15;;;;;;;27.00;15.03;;;7.70;83.70;;;;;;5066342;28;20087;-80
2020/12/05 08:28:03;;;;;;;24.27;15.83;;;7.70;83.60;;;;;;5038486;28;20047;-80
2020/12/05 08:30:30;;;;;;;24.30;15.03;;;7.70;83.70;;;;;;5052463;28;20063;-80
2020/12/05 08:33:00;;;;;;;25.17;15.50;;;7.70;83.60;;;;;;5063847;28;20037;-82
2020/12/05 08:35:29;;;;;;;23.30;15.30;;;7.70;83.60;;;;;;5031662;28;20408;-82
2020/12/05 08:37:54;;;;;;;26.37;14.37;;;7.70;83.60;;;;;;5051418;28;20048;-81
2020/12/05 08:40:22;;;;;;;21.53;14.47;;;7.70;83.60;;;;;;5050116;28;20033;-81
2020/12/05 08:42:48;;;;;;;30.00;15.17;;;7.70;83.60;;;;;;5056149;28;20037;-81
2020/12/05 08:45:15;;;;;;;26.10;15.27;;;7.70;83.60;;;;;;5042506;28;20040;-81
2020/12/05 08:48:01;;;;;;;24.67;15.83;;;7.70;84.30;;;;;;5043777;28;20048;-81
2020/12/05 08:50:34;;;;;;;26.13;14.67;;;7.70;83.70;;;;;;5054458;28;20036;-81
2020/12/05 08:53:01;;;;;;;23.85;14.95;;;7.70;83.70;;;;;;5062152;28;20550;-80
2020/12/05 08:55:47;;;;;;;27.33;14.93;;;7.90;83.90;;;;;;5052443;28;20068;-79
2020/12/05 08:58:45;;;;;;;23.20;14.13;;;7.80;83.80;;;;;;5038588;28;20463;-81
2020/12/05 09:01:13;;;;;;;26.30;15.20;;;7.80;83.80;;;;;;5048485;28;21152;-80
2020/12/05 09:03:39;;;;;;;22.97;14.90;;;7.80;83.80;;;;;;5062568;28;20025;-80
2020/12/05 09:06:25;;;;;;;25.43;14.43;;;7.80;83.80;;;;;;5046671;28;20047;-81
2020/12/05 09:08:50;;;;;;;23.60;14.70;;;7.80;83.80;;;;;;5066673;28;20404;-80
2020/12/05 09:11:20;;;;;;;26.33;16.40;;;7.80;83.80;;;;;;5062988;28;20033;-80
2020/12/05 09:13:46;;;;;;;25.37;15.10;;;7.80;83.70;;;;;;5064425;28;20040;-80
2020/12/05 09:16:12;;;;;;;26.23;14.67;;;7.80;83.70;;;;;;5050240;28;20033;-81
2020/12/05 09:18:48;;;;;;;22.80;15.53;;;7.90;83.80;;;;;;5060417;28;20508;-80
2020/12/05 09:21:18;;;;;;;23.33;15.33;;;7.90;83.60;;;;;;5051935;28;20888;-80
2020/12/05 09:24:05;;;;;;;23.50;15.77;;;7.90;83.70;;;;;;5035771;28;20052;-80
2020/12/05 09:26:32;;;;;;;21.70;14.10;;;8.00;83.90;;;;;;5034584;28;20045;-81
2020/12/05 09:29:18;;;;;;;23.17;16.13;;;8.00;83.90;;;;;;5054996;28;20050;-81
2020/12/05 09:32:04;;;;;;;25.83;14.80;;;8.00;83.80;;;;;;5053750;28;20049;-81
2020/12/05 09:34:34;;;;;;;22.07;14.50;;;8.10;83.90;;;;;;5050567;28;20438;-80
2020/12/05 09:37:00;;;;;;;21.83;13.30;;;8.20;84.30;;;;;;5067170;28;20083;-80
2020/12/05 09:39:26;;;;;;;22.60;14.20;;;8.20;83.50;;;;;;5066056;28;20519;-79
2020/12/05 09:41:51;;;;;;;27.57;15.00;;;8.30;83.40;;;;;;5060280;28;20047;-82
2020/12/05 09:44:17;;;;;;;22.80;15.47;;;8.40;83.30;;;;;;5064890;28;20043;-80
2020/12/05 09:46:45;;;;;;;19.93;14.30;;;8.40;83.10;;;;;;5062565;28;20770;-79
2020/12/05 09:49:10;;;;;;;20.47;14.33;;;8.40;82.90;;;;;;5063789;28;20749;-80
2020/12/05 09:51:57;;;;;;;22.77;14.57;;;8.50;82.80;;;;;;5050476;28;20048;-79
2020/12/05 09:54:22;;;;;;;23.23;14.40;;;8.50;82.80;;;;;;5050420;28;20033;-82
2020/12/05 09:56:51;;;;;;;22.73;14.47;;;8.60;82.70;;;;;;5066271;28;20171;-82
2020/12/05 09:59:17;;;;;;;18.13;13.03;;;8.60;82.90;;;;;;5051206;28;20051;-82
2020/12/05 10:01:42;;;;;;;21.27;13.30;;;8.60;82.70;;;;;;5034582;28;20033;-80
2020/12/05 10:04:08;;;;;;;19.40;12.93;;;8.60;82.70;;;;;;5050013;28;20065;-79
2020/12/05 10:06:34;;;;;;;23.53;15.17;;;8.70;82.60;;;;;;5061743;28;20040;-80
2020/12/05 10:09:00;;;;;;;22.60;14.57;;;8.70;82.50;;;;;;5082881;28;20239;-80
2020/12/05 10:11:25;;;;;;;18.13;13.40;;;8.90;82.60;;;;;;5064343;28;20025;-80
2020/12/05 10:13:51;;;;;;;18.10;14.23;;;8.80;82.20;;;;;;5051011;28;20037;-79
2020/12/05 10:16:17;;;;;;;20.17;13.83;;;8.80;82.10;;;;;;5067524;28;20041;-79
2020/12/05 10:18:43;;;;;;;15.80;12.73;;;8.90;82.00;;;;;;5069921;28;20500;-80
2020/12/05 10:21:29;;;;;;;18.20;13.37;;;8.90;82.00;;;;;;5054200;28;20609;-80
2020/12/05 10:24:18;;;;;;;19.50;13.83;;;9.00;82.00;;;;;;5047693;28;20044;-80
2020/12/05 10:26:51;;;;;;;19.53;12.50;;;9.00;81.90;;;;;;5054315;28;20123;-81
2020/12/05 10:29:16;;;;;;;16.27;12.87;;;9.00;81.70;;;;;;5069749;28;20098;-82
2020/12/05 10:32:02;;;;;;;18.57;12.80;;;9.00;81.60;;;;;;5060794;28;20033;-81
2020/12/05 10:34:28;;;;;;;17.60;12.83;;;9.00;81.60;;;;;;5061632;28;20039;-79
2020/12/05 10:37:13;;;;;;;18.80;12.60;;;9.10;81.70;;;;;;5047628;28;20044;-79
2020/12/05 10:39:41;;;;;;;17.13;13.03;;;9.00;81.50;;;;;;5069686;28;20052;-81
2020/12/05 10:42:26;;;;;;;15.57;12.60;;;9.10;81.50;;;;;;5048805;28;20075;-79
2020/12/05 10:44:52;;;;;;;14.93;11.90;;;9.00;81.50;;;;;;5045346;28;20082;-80
2020/12/05 10:47:19;;;;;;;14.40;12.63;;;9.00;81.50;;;;;;5064559;28;20040;-81
2020/12/05 10:49:45;;;;;;;18.67;13.03;;;9.10;81.70;;;;;;5071175;28;20029;-81
2020/12/05 10:52:14;;;;;;;24.23;12.23;;;9.10;81.70;;;;;;5054386;28;20045;-80
2020/12/05 10:54:41;;;;;;;17.37;11.50;;;9.20;81.70;;;;;;5070887;28;20071;-81
2020/12/05 10:57:08;;;;;;;14.00;10.90;;;9.20;81.50;;;;;;5064421;28;20045;-81
2020/12/05 10:59:54;;;;;;;11.97;9.87;;;9.40;81.30;;;;;;5038736;28;20099;-81
2020/12/05 11:02:20;;;;;;;14.27;11.17;;;9.40;81.90;;;;;;5052917;28;20048;-81
2020/12/05 11:04:46;;;;;;;16.23;9.33;;;9.40;81.10;;;;;;5052757;28;20037;-80
2020/12/05 11:07:31;;;;;;;18.87;9.50;;;9.50;80.80;;;;;;5039537;28;20135;-80
2020/12/05 11:09:58;;;;;;;12.63;9.30;;;9.50;79.60;;;;;;5065006;28;20040;-82
2020/12/05 11:12:23;;;;;;;10.00;8.23;;;9.60;80.10;;;;;;5067650;28;20033;-81
2020/12/05 11:14:49;;;;;;;10.17;7.53;;;9.60;80.00;;;;;;5063990;28;20044;-81
2020/12/05 11:17:15;;;;;;;11.87;7.93;;;9.60;79.80;;;;;;5052269;28;20166;-81
2020/12/05 11:20:00;;;;;;;10.10;7.20;;;9.60;79.60;;;;;;5056013;28;20033;-81
2020/12/05 11:22:26;;;;;;;10.83;7.23;;;9.60;79.50;;;;;;5061539;28;20036;-80
2020/12/05 11:25:13;;;;;;;14.57;6.80;;;9.60;78.20;;;;;;5068870;28;20048;-80
2020/12/05 11:27:39;;;;;;;9.83;6.20;;;9.50;78.80;;;;;;5050034;28;20041;-81
2020/12/05 11:30:28;;;;;;;8.97;6.50;;;9.50;79.00;;;;;;5063513;28;20577;-81
2020/12/05 11:32:54;;;;;;;8.43;5.47;;;9.50;79.10;;;;;;5061650;28;20438;-80
2020/12/05 11:35:19;;;;;;;11.17;5.90;;;9.50;79.30;;;;;;5053315;28;20037;-81
2020/12/05 11:37:45;;;;;;;7.33;5.70;;;9.40;79.30;;;;;;5078545;28;20143;-81
2020/12/05 11:40:11;;;;;;;8.53;6.57;;;9.40;79.00;;;;;;5062737;28;20039;-81
2020/12/05 11:42:37;;;;;;;10.17;5.80;;;9.30;79.00;;;;;;5083288;28;20033;-81
2020/12/05 11:45:03;;;;;;;7.50;5.90;;;9.30;78.50;;;;;;5040014;28;20104;-81
2020/12/05 11:47:29;;;;;;;11.87;6.17;;;9.40;78.70;;;;;;5054159;28;20041;-80
2020/12/05 11:49:55;;;;;;;8.87;7.93;;;9.20;78.90;;;;;;5058032;28;20118;-82
2020/12/05 11:52:22;;;;;;;12.00;8.83;;;9.20;78.50;;;;;;5070051;28;20052;-82
2020/12/05 11:55:08;;;;;;;10.80;9.13;;;9.10;77.10;;;;;;5069560;28;20045;-82
2020/12/05 11:57:33;;;;;;;16.57;8.77;;;9.00;78.60;;;;;;5071681;28;20393;-81
2020/12/05 11:59:59;;;;;;;10.87;7.93;;;9.00;78.80;;;;;;5071123;28;20105;-81
2020/12/05 12:02:26;;;;;;;10.27;8.00;;;9.00;79.00;;;;;;5074052;28;20064;-80
2020/12/05 12:04:51;;;;;;;9.37;6.70;;;9.00;79.00;;;;;;5076372;28;20044;-81
2020/12/05 12:07:17;;;;;;;7.07;5.60;;;9.00;78.90;;;;;;5065940;28;20037;-82
2020/12/05 12:09:43;;;;;;;7.57;6.27;;;9.00;78.60;;;;;;5069122;28;20033;-82
2020/12/05 12:12:28;;;;;;;9.47;6.53;;;9.00;78.80;;;;;;5060172;28;20044;-82
2020/12/05 12:15:15;;;;;;;8.70;6.23;;;9.00;79.10;;;;;;5055959;28;20105;-81
2020/12/05 12:17:42;;;;;;;7.67;5.57;;;9.00;78.50;;;;;;5053726;28;20041;-82
2020/12/05 12:20:08;;;;;;;9.10;5.33;;;9.00;79.40;;;;;;5054687;28;20032;-81
2020/12/05 12:22:54;;;;;;;6.77;5.30;;;9.00;78.70;;;;;;5046090;28;20051;-82
2020/12/05 12:25:20;;;;;;;5.83;4.70;;;8.90;78.30;;;;;;5073138;28;20033;-81
2020/12/05 12:28:05;;;;;;;7.53;5.17;;;8.90;76.70;;;;;;5043836;28;20052;-82
2020/12/05 12:30:51;;;;;;;11.93;4.67;;;8.90;77.30;;;;;;5032721;28;20074;-83
2020/12/05 12:33:17;;;;;;;4.87;4.37;;;8.90;77.80;;;;;;5072977;28;20033;-81
2020/12/05 12:36:02;;;;;;;8.93;4.60;;;8.90;78.20;;;;;;5056204;28;20040;-83
2020/12/05 12:38:28;;;;;;;4.03;3.63;;;8.90;78.30;;;;;;5069711;28;20037;-81
2020/12/05 12:40:54;;;;;;;7.20;3.77;;;8.80;77.60;;;;;;5073756;28;20045;-82
2020/12/05 12:43:28;;;;;;;6.70;4.13;;;8.90;78.10;;;;;;5071117;28;20082;-80
2020/12/05 12:46:16;;;;;;;;;;;8.90;77.60;;;;;;5043206;28;20043;-81
2020/12/05 12:49:05;;;;;;;4.03;3.30;;;9.00;78.10;;;;;;5066271;28;20307;-80
2020/12/05 12:51:30;;;;;;;8.13;4.43;;;8.80;78.50;;;;;;5053080;28;20048;-80
2020/12/05 12:53:57;;;;;;;5.67;3.90;;;8.90;78.80;;;;;;5067874;28;20047;-81
2020/12/05 12:56:24;;;;;;;4.80;3.27;;;8.80;78.50;;;;;;5067865;28;20108;-81
2020/12/05 12:58:50;;;;;;;8.27;3.00;;;8.90;78.60;;;;;;5055283;28;20058;-81
2020/12/05 13:01:36;;;;;;;4.37;3.10;;;8.90;78.50;;;;;;5058745;28;20060;-80
2020/12/05 13:04:02;;;;;;;3.77;2.80;;;8.90;78.60;;;;;;5051439;28;20387;-80
2020/12/05 13:06:28;;;;;;;4.23;2.80;;;8.90;78.00;;;;;;5065271;28;20040;-80
2020/12/05 13:08:54;;;;;;;3.00;2.27;;;8.80;78.20;;;;;;5035046;28;20052;-81
2020/12/05 13:11:39;;;;;;;4.67;2.33;;;8.80;78.20;;;;;;5066030;28;20056;-80
2020/12/05 13:14:06;;;;;;;3.23;2.20;;;8.90;78.30;;;;;;5052844;28;20044;-79